Main page
METAR-TAF:

METAR-TAF

Airports :

Capitán FAP Víctor Montes Arias International Airport

Talara, Peru

latitude: 04-34S, longitude: 081-15W, elevation: 85 m

Current weather observation

The report was made 6 hours and 54 minutes ago, at 20:00 UTC
Wind 10 kt from the South
Temperature 21°C
Humidity 69%
Pressure 1012 hPa
Visibility 10 km or more
no clouds below 1500 m and no cumulonimbus

METAR: SPYL 022000Z 19010KT CAVOK 21/15 Q1012 RMK BIRD HAZARD RWY 17/35 PP000

Time: 21:54 (02:54 UTC)

Forecast

The report was made 9 hours and 54 minutes ago, at 17:00 UTC
Forecast valid from 02 at 18 UTC to 03 at 18 UTC
Wind 14 kt from the South/Southwest
Visibility 10 km or more
no clouds below 1500 m and no cumulonimbus
From 03 at 1200 UTC
Wind 18 kt from the Southeast
Visibility 10 km or more
no clouds below 1500 m and no cumulonimbus

TAF: SPYL 021700Z 0218/0318 20014KT CAVOK TX25/0219Z TN14/0311Z FM031200 13018KT CAVOK

Weather observations and forecasts of more than 4000 airports (METAR and TAF reports).

The available stations are represented by yellow and red dots on the map.

Hover mouse over dot to see the name of the station.

Then click to see weather observations and forecasts.

To change the map : click on the green buttons with a black cross to zoom in, on the green button with a dash to zoom out, or on the green arrows for adjacent maps.


METAR-TAF: